Terminal Aerodrome Forecast
Issued by NWS Greer, SC

Home | Current Version | Previous Version | Text Only | Print | Product List | Glossary On
Versions: 1 2 3 4 5 6 7 8 9 10 11 12 13 14 15 16 17 18 19 20 21 22 23 24 25 26 27 28 29 30 31 32 33 34 35 36 37 38 39 40 41 42 43 44 45
000
FTUS42 KGSP 181132
TAFAVL
TAF
KAVL 181132Z 1812/1912 34005KT P6SM FEW003 BKN090
     FM181500 34007KT P6SM SCT025
     FM181700 15006KT P6SM BKN040
     FM190300 15004KT P6SM OVC020
     FM190500 15003KT P6SM OVC008
     FM190700 16004KT 5SM -SHRA BR OVC003=

USA.gov is the U.S. government's official web portal to all federal, state and local government web resources and services.